createdAt,value
2023-04-02T00:01:02.156Z,101266.25
2023-04-02T00:01:39.223Z,101253.84
2023-04-02T00:02:22.704Z,101256.22
2023-04-02T00:02:54.189Z,101258.16
2023-04-02T00:03:25.728Z,101255.44
2023-04-02T00:03:59.395Z,101266.25
2023-04-02T00:04:37.990Z,101262.75
2023-04-02T00:05:16.584Z,101267.38
2023-04-02T00:05:51.443Z,101269.31
2023-04-02T00:06:25.815Z,101275.50
2023-04-02T00:07:30.643Z,101273.88
2023-04-02T00:08:10.305Z,101273.09
2023-04-02T00:08:41.810Z,101278.06
2023-04-02T00:09:13.128Z,101272.63
2023-04-02T00:09:44.642Z,101278.84
2023-04-02T00:10:39.734Z,101272.63
2023-04-02T00:11:30.630Z,101267.56
2023-04-02T00:12:15.446Z,101275.34
2023-04-02T00:12:59.950Z,101274.09
2023-04-02T00:13:44.203Z,101271.38
2023-04-02T00:14:33.393Z,101278.38
2023-04-02T00:15:05.267Z,101278.38
2023-04-02T00:15:41.559Z,101283.78
2023-04-02T00:16:17.256Z,101284.59
2023-04-02T00:16:48.830Z,101280.31
2023-04-02T00:17:24.570Z,101281.75
2023-04-02T00:17:57.121Z,101282.88
2023-04-02T00:18:29.175Z,101284.78
2023-04-02T00:19:06.240Z,101292.13
2023-04-02T00:19:43.886Z,101284.78
2023-04-02T00:20:17.846Z,101285.59
2023-04-02T00:20:56.059Z,101286.03
2023-04-02T00:21:31.132Z,101285.25
2023-04-02T00:22:06.641Z,101284.47
2023-04-02T00:22:44.669Z,101287.63
2023-04-02T00:23:16.152Z,101286.84
2023-04-02T00:23:47.672Z,101288.41
2023-04-02T00:24:21.469Z,101293.84
2023-04-02T00:24:55.097Z,101286.84
2023-04-02T00:25:28.677Z,101287.63
2023-04-02T00:26:00.266Z,101292.56
2023-04-02T00:26:37.736Z,101288.28
2023-04-02T00:27:13.120Z,101293.84
2023-04-02T00:27:44.542Z,101298.00
2023-04-02T00:28:19.528Z,101291.00
2023-04-02T00:28:54.074Z,101292.91
2023-04-02T00:29:25.563Z,101293.38
2023-04-02T00:29:58.912Z,101296.88
2023-04-02T00:30:30.402Z,101298.00
2023-04-02T00:31:01.845Z,101299.25
2023-04-02T00:31:34.942Z,101301.94
2023-04-02T00:32:06.597Z,101295.28
2023-04-02T00:32:38.063Z,101304.66
2023-04-02T00:33:17.115Z,101298.44
2023-04-02T00:33:49.788Z,101294.03
2023-04-02T00:34:26.118Z,101311.84
2023-04-02T00:34:58.441Z,101299.13
2023-04-02T00:35:30.769Z,101304.53
2023-04-02T00:36:07.644Z,101302.16
2023-04-02T00:36:39.250Z,101304.84
2023-04-02T00:37:18.556Z,101305.97
2023-04-02T00:37:50.510Z,101304.44
2023-04-02T00:38:28.423Z,101306.78
2023-04-02T00:39:04.736Z,101309.47
2023-04-02T00:39:42.036Z,101313.34
2023-04-02T00:40:31.593Z,101314.88
2023-04-02T00:41:06.187Z,101315.25
2023-04-02T00:41:38.684Z,101313.19
2023-04-02T00:42:12.634Z,101320.19
2023-04-02T00:42:44.774Z,101318.28
2023-04-02T00:43:16.813Z,101323.69
2023-04-02T00:43:50.778Z,101325.28
2023-04-02T00:44:23.659Z,101325.28
2023-04-02T00:44:55.886Z,101324.81
2023-04-02T00:45:30.967Z,101322.13
2023-04-02T00:46:10.710Z,101322.91
2023-04-02T00:46:49.494Z,101327.53
2023-04-02T00:47:24.543Z,101338.34
2023-04-02T00:47:58.464Z,101340.72
2023-04-02T00:48:33.382Z,101326.72
2023-04-02T00:49:14.454Z,101333.59
2023-04-02T00:49:46.984Z,101329.63
2023-04-02T00:50:30.591Z,101332.47
2023-04-02T00:51:17.713Z,101338.69
2023-04-02T00:51:56.639Z,101331.69
2023-04-02T00:52:31.213Z,101343.63
2023-04-02T00:53:20.866Z,101350.16
2023-04-02T00:53:55.133Z,101344.16
2023-04-02T00:54:32.427Z,101345.41
2023-04-02T00:55:14.862Z,101343.50
2023-04-02T00:55:46.408Z,101346.53
2023-04-02T00:56:28.467Z,101346.53
2023-04-02T00:57:01.471Z,101343.34
2023-04-02T00:57:33.813Z,101350.69
2023-04-02T00:58:25.331Z,101341.31
2023-04-02T00:58:58.236Z,101355.31
2023-04-02T00:59:36.656Z,101353.72
2023-04-02T01:00:23.671Z,101352.94
2023-04-02T01:00:55.487Z,101361.03
2023-04-02T01:01:34.837Z,101356.75
2023-04-02T01:02:13.480Z,101361.03
2023-04-02T01:03:17.108Z,101360.25
2023-04-02T01:04:02.339Z,101365.19
2023-04-02T01:04:36.391Z,101358.56
2023-04-02T01:05:16.724Z,101363.28
2023-04-02T01:06:01.638Z,101360.13
2023-04-02T01:06:37.521Z,101368.69
2023-04-02T01:07:11.095Z,101373.31
2023-04-02T01:08:06.053Z,101374.09
2023-04-02T01:08:45.689Z,101374.09
2023-04-02T01:10:07.568Z,101371.75
2023-04-02T01:10:57.376Z,101372.97
2023-04-02T01:12:03.024Z,101383.00
2023-04-02T01:12:57.160Z,101376.00
2023-04-02T01:13:49.192Z,101379.50
2023-04-02T01:14:44.951Z,101384.13
2023-04-02T01:15:25.277Z,101384.13
2023-04-02T01:16:18.312Z,101385.28
2023-04-02T01:17:00.478Z,101381.78
2023-04-02T01:17:48.944Z,101388.78
2023-04-02T01:18:46.459Z,101381.78
2023-04-02T01:20:07.071Z,101387.53
2023-04-02T01:21:07.442Z,101392.13
2023-04-02T01:21:52.759Z,101397.53
2023-04-02T01:22:24.087Z,101394.84
2023-04-02T01:23:11.502Z,101396.75
2023-04-02T01:23:54.105Z,101399.47
2023-04-02T01:24:31.471Z,101398.66
2023-04-02T01:25:06.407Z,101396.63
2023-04-02T01:25:58.566Z,101400.91
2023-04-02T01:26:57.959Z,101393.91
2023-04-02T01:27:39.689Z,101395.03
2023-04-02T01:28:35.348Z,101388.03
2023-04-02T01:29:12.872Z,101395.34
2023-04-02T01:29:48.608Z,101406.97
2023-04-02T01:30:21.104Z,101408.09
2023-04-02T01:30:56.253Z,101403.47
2023-04-02T01:31:30.364Z,101411.13
2023-04-02T01:32:10.263Z,101406.50
2023-04-02T01:32:42.946Z,101402.22
2023-04-02T01:33:14.623Z,101406.03
2023-04-02T01:33:46.308Z,101408.75
2023-04-02T01:34:21.959Z,101408.41
2023-04-02T01:34:55.466Z,101410.00
2023-04-02T01:35:32.207Z,101413.50
2023-04-02T01:36:14.345Z,101406.19
2023-04-02T01:37:04.459Z,101413.97
2023-04-02T01:37:49.332Z,101414.75
2023-04-02T01:38:27.684Z,101408.56
2023-04-02T01:39:27.323Z,101414.44
2023-04-02T01:40:08.811Z,101415.22
2023-04-02T01:41:03.406Z,101417.94
2023-04-02T01:41:43.938Z,101417.47
2023-04-02T01:42:42.651Z,101418.25
2023-04-02T01:43:42.316Z,101414.75
2023-04-02T01:44:26.306Z,101422.06
2023-04-02T01:45:21.807Z,101425.91
2023-04-02T01:45:53.267Z,101425.44
2023-04-02T01:46:33.284Z,101413.03
2023-04-02T01:47:08.390Z,101423.84
2023-04-02T01:47:40.633Z,101422.59
2023-04-02T01:48:19.780Z,101422.13
2023-04-02T01:48:54.780Z,101431.34
2023-04-02T01:49:27.126Z,101427.06
2023-04-02T01:50:12.873Z,101435.19
2023-04-02T01:50:47.004Z,101433.25
2023-04-02T01:51:31.576Z,101426.28
2023-04-02T01:52:03.039Z,101433.25
2023-04-02T01:52:41.501Z,101437.13
2023-04-02T01:53:16.343Z,101435.53
2023-04-02T01:53:47.837Z,101443.28
2023-04-02T01:54:21.232Z,101442.16
2023-04-02T01:54:53.562Z,101435.53
2023-04-02T01:55:50.662Z,101443.63
2023-04-02T01:56:22.573Z,101439.34
2023-04-02T01:56:54.717Z,101444.28
2023-04-02T01:57:28.135Z,101438.41
2023-04-02T01:58:01.295Z,101442.69
2023-04-02T01:58:33.477Z,101438.88
2023-04-02T01:59:05.981Z,101452.06
2023-04-02T01:59:37.540Z,101454.31
2023-04-02T02:00:14.786Z,101453.19
2023-04-02T02:00:52.986Z,101457.66
2023-04-02T02:01:31.311Z,101455.09
2023-04-02T02:02:05.496Z,101454.00
2023-04-02T02:02:37.146Z,101453.53
2023-04-02T02:03:12.190Z,101460.53
2023-04-02T02:03:44.798Z,101456.56
2023-04-02T02:04:17.156Z,101465.13
2023-04-02T02:04:48.727Z,101458.94
2023-04-02T02:05:23.058Z,101467.03
2023-04-02T02:05:55.497Z,101468.16
2023-04-02T02:06:27.454Z,101461.16
2023-04-02T02:07:00.863Z,101467.69
2023-04-02T02:07:32.482Z,101466.56
2023-04-02T02:08:20.559Z,101468.81
2023-04-02T02:09:01.337Z,101469.59
2023-04-02T02:09:35.638Z,101473.09
2023-04-02T02:10:14.294Z,101481.06
2023-04-02T02:10:45.840Z,101470.88
2023-04-02T02:11:21.480Z,101474.06
2023-04-02T02:11:52.965Z,101472.81
2023-04-02T02:12:24.733Z,101481.72
2023-04-02T02:13:00.159Z,101475.50
2023-04-02T02:13:34.628Z,101482.03
2023-04-02T02:14:13.959Z,101480.13
2023-04-02T02:14:50.049Z,101476.16
2023-04-02T02:15:23.472Z,101484.72
2023-04-02T02:15:58.741Z,101482.50
2023-04-02T02:16:32.038Z,101484.41
2023-04-02T02:17:13.299Z,101476.63
2023-04-02T02:17:45.153Z,101477.75
2023-04-02T02:18:23.300Z,101488.22
2023-04-02T02:19:02.591Z,101497.47
2023-04-02T02:19:42.395Z,101480.00
2023-04-02T02:20:14.830Z,101493.53
2023-04-02T02:20:46.564Z,101484.47
2023-04-02T02:21:29.836Z,101496.88
2023-04-02T02:22:10.209Z,101495.91
2023-04-02T02:22:48.396Z,101497.69
2023-04-02T02:23:21.277Z,101497.22
2023-04-02T02:23:53.787Z,101500.56
2023-04-02T02:24:28.826Z,101493.13
2023-04-02T02:25:05.271Z,101494.22
2023-04-02T02:25:37.652Z,101503.94
2023-04-02T02:26:13.050Z,101503.44
2023-04-02T02:26:46.999Z,101502.66
2023-04-02T02:27:24.023Z,101509.97
2023-04-02T02:28:07.151Z,101509.97
2023-04-02T02:28:42.429Z,101513.00
2023-04-02T02:29:19.960Z,101500.13
2023-04-02T02:29:56.589Z,101511.56
2023-04-02T02:30:33.363Z,101509.03
2023-04-02T02:31:12.842Z,101494.88
2023-04-02T02:31:47.511Z,101506.47
2023-04-02T02:33:22.211Z,101511.25
2023-04-02T02:34:00.406Z,101518.56
2023-04-02T02:34:39.262Z,101521.25
2023-04-02T02:35:22.399Z,101512.69
2023-04-02T02:36:01.578Z,101509.66
2023-04-02T02:36:50.611Z,101520.47
2023-04-02T02:37:29.087Z,101517.94
2023-04-02T02:38:34.274Z,101517.94
2023-04-02T02:39:37.176Z,101523.34
2023-04-02T02:40:18.534Z,101526.69
2023-04-02T02:40:54.479Z,101522.41
2023-04-02T02:41:35.391Z,101527.03
2023-04-02T02:42:28.391Z,101522.72
2023-04-02T02:43:04.289Z,101530.03
2023-04-02T02:43:40.327Z,101530.84
2023-04-02T02:44:20.940Z,101530.38
2023-04-02T02:44:55.158Z,101530.38
2023-04-02T02:45:32.256Z,101533.06
2023-04-02T02:46:04.826Z,101524.97
2023-04-02T02:46:43.310Z,101530.84
2023-04-02T02:47:16.048Z,101532.28
2023-04-02T02:47:49.681Z,101540.38
2023-04-02T02:48:27.050Z,101534.03
2023-04-02T02:49:01.900Z,101529.72
2023-04-02T02:49:41.988Z,101534.50
2023-04-02T02:50:23.719Z,101536.09
2023-04-02T02:50:56.508Z,101549.13
2023-04-02T02:51:39.589Z,101537.84
2023-04-02T02:52:16.204Z,101551.50
2023-04-02T02:52:55.872Z,101545.31
2023-04-02T02:53:27.256Z,101549.13
2023-04-02T02:54:03.866Z,101548.16
2023-04-02T02:54:38.048Z,101550.72
2023-04-02T02:55:27.503Z,101548.63
2023-04-02T02:56:01.234Z,101540.06
2023-04-02T02:56:36.837Z,101556.75
2023-04-02T02:57:13.751Z,101557.22
2023-04-02T02:57:56.978Z,101559.44
2023-04-02T02:58:32.668Z,101567.56
2023-04-02T02:59:08.145Z,101558.16
2023-04-02T02:59:40.422Z,101558.50
2023-04-02T03:00:13.110Z,101562.00
2023-04-02T03:00:46.582Z,101562.31
2023-04-02T03:01:18.782Z,101570.41
2023-04-02T03:01:51.168Z,101567.22
2023-04-02T03:02:24.493Z,101570.41
2023-04-02T03:02:57.475Z,101566.13
2023-04-02T03:03:32.674Z,101572.63
2023-04-02T03:04:04.466Z,101571.84
2023-04-02T03:04:36.351Z,101566.44
2023-04-02T03:05:08.638Z,101574.84
2023-04-02T03:05:41.511Z,101577.56
2023-04-02T03:06:16.765Z,101579.81
2023-04-02T03:06:52.738Z,101571.53
2023-04-02T03:07:26.939Z,101570.75
2023-04-02T03:08:01.250Z,101583.13
2023-04-02T03:08:40.213Z,101583.31
2023-04-02T03:09:27.279Z,101579.50
2023-04-02T03:10:22.500Z,101585.22
2023-04-02T03:11:05.224Z,101586.31
2023-04-02T03:11:43.468Z,101587.13
2023-04-02T03:12:32.961Z,101587.91
2023-04-02T03:13:35.063Z,101594.44
2023-04-02T03:14:22.851Z,101594.44
2023-04-02T03:15:01.380Z,101593.63
2023-04-02T03:15:54.200Z,101595.38
2023-04-02T03:16:36.675Z,101593.47
2023-04-02T03:17:17.612Z,101597.59
2023-04-02T03:18:13.191Z,101598.88
2023-04-02T03:18:56.009Z,101603.47
2023-04-02T03:19:45.361Z,101614.28
2023-04-02T03:20:32.341Z,101607.28
2023-04-02T03:21:12.301Z,101607.75
2023-04-02T03:21:51.977Z,101612.38
2023-04-02T03:22:32.201Z,101596.16
2023-04-02T03:23:21.585Z,101609.66
2023-04-02T03:24:22.694Z,101613.16
2023-04-02T03:25:16.349Z,101616.19
2023-04-02T03:26:00.697Z,101613.00
2023-04-02T03:26:49.396Z,101616.81
2023-04-02T03:27:26.082Z,101613.16
2023-04-02T03:28:06.128Z,101629.53
2023-04-02T03:28:46.515Z,101626.81
2023-04-02T03:29:23.004Z,101621.72
2023-04-02T03:30:18.701Z,101629.84
2023-04-02T03:30:58.779Z,101633.31
2023-04-02T03:31:48.429Z,101632.84
2023-04-02T03:32:28.851Z,101629.34
2023-04-02T03:33:06.377Z,101641.25
2023-04-02T03:33:43.068Z,101637.75
2023-04-02T03:34:26.525Z,101643.97
2023-04-02T03:35:01.845Z,101638.09
2023-04-02T03:35:43.475Z,101643.47
2023-04-02T03:36:22.646Z,101645.38
2023-04-02T03:37:05.190Z,101648.88
2023-04-02T03:37:44.198Z,101640.78
2023-04-02T03:38:25.710Z,101655.41
2023-04-02T03:39:01.523Z,101656.84
2023-04-02T03:39:46.486Z,101653.03
2023-04-02T03:40:24.584Z,101647.94
2023-04-02T03:41:23.554Z,101649.06
2023-04-02T03:42:21.007Z,101650.97
2023-04-02T03:43:00.805Z,101652.38
2023-04-02T03:43:39.524Z,101653.81
2023-04-02T03:44:28.218Z,101651.09
2023-04-02T03:45:15.271Z,101658.88
2023-04-02T03:45:51.947Z,101656.19
2023-04-02T03:46:40.752Z,101660.16
2023-04-02T03:47:30.750Z,101661.44
2023-04-02T03:48:40.326Z,101663.66
2023-04-02T03:49:37.841Z,101666.69
2023-04-02T03:50:20.043Z,101672.06
2023-04-02T03:51:06.245Z,101668.59
2023-04-02T03:51:47.471Z,101670.00
2023-04-02T03:52:27.355Z,101664.13
2023-04-02T03:53:00.176Z,101670.31
2023-04-02T03:53:32.481Z,101677.78
2023-04-02T03:54:04.625Z,101675.41
2023-04-02T03:54:36.447Z,101678.41
2023-04-02T03:55:15.934Z,101673.97
2023-04-02T03:55:47.619Z,101684.78
2023-04-02T03:56:39.465Z,101679.38
2023-04-02T03:57:42.796Z,101680.50
2023-04-02T03:58:24.835Z,101680.81
2023-04-02T03:59:13.277Z,101682.72
2023-04-02T04:00:11.195Z,101684.59
2023-04-02T04:00:49.849Z,101683.19
2023-04-02T04:01:28.955Z,101682.72
2023-04-02T04:02:19.048Z,101692.72
2023-04-02T04:02:54.870Z,101691.13
2023-04-02T04:03:41.783Z,101694.63
2023-04-02T04:04:18.083Z,101695.72
2023-04-02T04:04:50.816Z,101691.44
2023-04-02T04:05:29.719Z,101700.00
2023-04-02T04:06:16.879Z,101700.81
2023-04-02T04:06:52.364Z,101700.00
2023-04-02T04:07:43.375Z,101705.91
2023-04-02T04:08:20.370Z,101703.19
2023-04-02T04:08:56.949Z,101704.63
2023-04-02T04:09:38.650Z,101701.59
2023-04-02T04:10:18.529Z,101710.81
2023-04-02T04:10:56.033Z,101711.13
2023-04-02T04:11:34.795Z,101713.81
2023-04-02T04:12:20.062Z,101714.13
2023-04-02T04:12:54.448Z,101719.53
2023-04-02T04:13:36.337Z,101711.44
2023-04-02T04:14:19.218Z,101714.63
2023-04-02T04:15:25.277Z,101716.53
2023-04-02T04:16:04.955Z,101731.94
2023-04-02T04:16:48.329Z,101713.03
2023-04-02T04:17:51.485Z,101724.63
2023-04-02T04:18:37.946Z,101725.72
2023-04-02T04:19:19.548Z,101727.47
2023-04-02T04:19:58.230Z,101733.16
2023-04-02T04:20:33.852Z,101728.41
2023-04-02T04:21:29.843Z,101731.91
2023-04-02T04:22:15.886Z,101739.69
2023-04-02T04:22:49.816Z,101733.50
2023-04-02T04:23:30.523Z,101743.03
2023-04-02T04:24:04.818Z,101738.41
2023-04-02T04:24:39.404Z,101740.63
2023-04-02T04:25:22.398Z,101746.50
2023-04-02T04:25:59.141Z,101739.53
2023-04-02T04:26:44.443Z,101740.63
2023-04-02T04:27:34.584Z,101746.81
2023-04-02T04:28:38.789Z,101745.22
2023-04-02T04:29:31.863Z,101751.75
2023-04-02T04:30:16.912Z,101753.34
2023-04-02T04:31:01.855Z,101753.94
2023-04-02T04:31:49.671Z,101755.38
2023-04-02T04:32:32.031Z,101758.38
2023-04-02T04:33:15.349Z,101764.56
2023-04-02T04:33:50.669Z,101760.88
2023-04-02T04:34:29.980Z,101765.19
2023-04-02T04:35:08.175Z,101760.75
2023-04-02T04:35:46.950Z,101766.13
2023-04-02T04:36:28.743Z,101768.84
2023-04-02T04:37:07.606Z,101765.94
2023-04-02T04:37:43.418Z,101769.75
2023-04-02T04:38:27.446Z,101775.47
2023-04-02T04:39:05.860Z,101777.06
2023-04-02T04:39:44.596Z,101779.25
2023-04-02T04:40:22.869Z,101777.66
2023-04-02T04:40:59.534Z,101779.75
2023-04-02T04:41:35.731Z,101781.66
2023-04-02T04:42:12.548Z,101779.88
2023-04-02T04:42:45.824Z,101781.78
2023-04-02T04:43:26.147Z,101781.91
2023-04-02T04:44:18.980Z,101784.78
2023-04-02T04:45:08.810Z,101783.69
2023-04-02T04:46:22.718Z,101794.47
2023-04-02T04:46:57.068Z,101789.06
2023-04-02T04:48:00.696Z,101790.19
2023-04-02T04:48:52.098Z,101797.47
2023-04-02T04:49:32.207Z,101799.06
2023-04-02T04:50:11.439Z,101795.88
2023-04-02T04:51:01.336Z,101802.56
2023-04-02T04:51:56.799Z,101809.25
2023-04-02T04:52:33.985Z,101813.06
2023-04-02T04:53:08.402Z,101805.25
2023-04-02T04:53:47.647Z,101801.78
2023-04-02T04:54:20.140Z,101794.59
2023-04-02T04:54:52.097Z,101802.38
2023-04-02T04:55:29.298Z,101806.19
2023-04-02T04:56:18.019Z,101805.69
2023-04-02T04:56:57.890Z,101808.38
2023-04-02T04:57:34.214Z,101808.72
2023-04-02T04:58:27.044Z,101813.13
2023-04-02T04:59:22.484Z,101817.53
2023-04-02T05:00:08.540Z,101819.13
2023-04-02T05:00:50.882Z,101825.63
2023-04-02T05:01:33.335Z,101816.75
2023-04-02T05:02:18.881Z,101828.16
2023-04-02T05:02:57.257Z,101821.94
2023-04-02T05:03:31.070Z,101832.25
2023-04-02T05:04:26.092Z,101833.19
2023-04-02T05:04:57.666Z,101827.59
2023-04-02T05:05:32.015Z,101828.69
2023-04-02T05:06:24.674Z,101833.00
2023-04-02T05:07:30.192Z,101837.09
2023-04-02T05:08:12.022Z,101842.31
2023-04-02T05:08:47.835Z,101841.59
2023-04-02T05:09:33.357Z,101847.81
2023-04-02T05:10:19.421Z,101841.41
2023-04-02T05:11:13.452Z,101849.03
2023-04-02T05:11:50.998Z,101850.75
2023-04-02T05:12:49.265Z,101844.84
2023-04-02T05:13:36.012Z,101847.84
2023-04-02T05:14:17.585Z,101854.63
2023-04-02T05:14:57.081Z,101849.56
2023-04-02T05:15:54.702Z,101861.72
2023-04-02T05:16:32.176Z,101860.75
2023-04-02T05:17:17.605Z,101861.06
2023-04-02T05:18:00.152Z,101860.06
2023-04-02T05:18:37.637Z,101854.47
2023-04-02T05:19:16.985Z,101861.56
2023-04-02T05:20:16.399Z,101859.97
2023-04-02T05:20:59.008Z,101867.56
2023-04-02T05:21:41.583Z,101876.25
2023-04-02T05:22:54.641Z,101879.25
2023-04-02T05:23:27.307Z,101880.66
2023-04-02T05:24:35.752Z,101877.75
2023-04-02T05:25:24.898Z,101879.44
2023-04-02T05:26:09.286Z,101894.22
2023-04-02T05:26:45.791Z,101892.03
2023-04-02T05:27:43.329Z,101898.22
2023-04-02T05:28:21.595Z,101890.44
2023-04-02T05:28:59.141Z,101883.66
2023-04-02T05:29:37.183Z,101891.44
2023-04-02T05:30:20.066Z,101905.41
2023-04-02T05:31:26.036Z,101896.53
2023-04-02T05:32:11.887Z,101897.63
2023-04-02T05:32:49.750Z,101905.19
2023-04-02T05:33:27.397Z,101901.22
2023-04-02T05:33:58.903Z,101902.81
2023-04-02T05:34:37.104Z,101902.00
2023-04-02T05:35:16.311Z,101905.78
2023-04-02T05:35:51.028Z,101908.78
2023-04-02T05:36:25.798Z,101912.38
2023-04-02T05:36:58.380Z,101913.16
2023-04-02T05:37:31.047Z,101907.56
2023-04-02T05:38:02.963Z,101914.38
2023-04-02T05:38:37.664Z,101913.09
2023-04-02T05:39:11.094Z,101919.56
2023-04-02T05:39:44.952Z,101918.25
2023-04-02T05:40:38.603Z,101916.38
2023-04-02T05:41:26.844Z,101923.16
2023-04-02T05:42:04.261Z,101929.63
2023-04-02T05:42:37.778Z,101930.72
2023-04-02T05:43:13.936Z,101929.94
2023-04-02T05:43:48.499Z,101936.69
2023-04-02T05:44:29.546Z,101932.13
2023-04-02T05:45:22.549Z,101937.22
2023-04-02T05:45:57.445Z,101939.41
2023-04-02T05:46:34.621Z,101937.00
2023-04-02T05:47:16.310Z,101928.41
2023-04-02T05:47:52.033Z,101936.81
2023-04-02T05:48:39.205Z,101936.31
2023-04-02T05:49:20.311Z,101933.91
2023-04-02T05:50:11.061Z,101938.50
2023-04-02T05:50:47.483Z,101939.09
2023-04-02T05:51:26.022Z,101939.38
2023-04-02T05:52:02.051Z,101941.84
2023-04-02T05:52:39.022Z,101942.66
2023-04-02T05:53:19.162Z,101955.63
2023-04-02T05:54:03.741Z,101954.31
2023-04-02T05:55:01.152Z,101948.63
2023-04-02T05:55:35.327Z,101954.00
2023-04-02T05:56:25.898Z,101954.00
2023-04-02T05:57:04.473Z,101962.38
2023-04-02T05:57:49.512Z,101958.41
2023-04-02T05:58:37.212Z,101960.91
2023-04-02T05:59:19.422Z,101965.47
2023-04-02T05:59:55.425Z,101961.97
2023-04-02T06:00:51.823Z,101968.16
2023-04-02T06:01:58.839Z,101964.69
2023-04-02T06:02:36.237Z,101964.97
2023-04-02T06:03:41.713Z,101965.03
2023-04-02T06:05:15.816Z,101978.22
2023-04-02T06:05:47.578Z,101975.81
2023-04-02T06:06:42.565Z,101970.44
2023-04-02T06:07:23.790Z,101979.59
2023-04-02T06:08:01.288Z,101980.97
2023-04-02T06:08:43.553Z,101983.97
2023-04-02T06:09:17.792Z,101985.06
2023-04-02T06:09:57.860Z,101985.38
2023-04-02T06:10:33.577Z,101985.06
2023-04-02T06:11:12.168Z,101989.84
2023-04-02T06:11:47.941Z,101990.66
2023-04-02T06:12:28.491Z,101995.22
2023-04-02T06:13:07.726Z,102001.41
2023-04-02T06:13:39.382Z,101994.94
2023-04-02T06:14:15.529Z,101993.84
2023-04-02T06:14:47.066Z,101999.75
2023-04-02T06:15:21.587Z,102005.94
2023-04-02T06:15:53.218Z,102014.28
2023-04-02T06:16:30.265Z,102006.50
2023-04-02T06:17:01.724Z,102011.09
2023-04-02T06:17:46.681Z,102011.09
2023-04-02T06:18:25.659Z,102009.19
2023-04-02T06:18:58.020Z,102009.78
2023-04-02T06:19:38.183Z,102014.59
2023-04-02T06:20:15.044Z,102015.09
2023-04-02T06:20:47.193Z,102027.69
2023-04-02T06:21:21.092Z,102016.91
2023-04-02T06:21:57.848Z,102023.41
2023-04-02T06:22:39.614Z,102020.63
2023-04-02T06:23:45.034Z,102023.03
2023-04-02T06:24:22.520Z,102030.00
2023-04-02T06:25:00.650Z,102030.19
2023-04-02T06:25:58.930Z,102029.41
2023-04-02T06:26:35.210Z,102034.59
2023-04-02T06:27:10.174Z,102033.28
2023-04-02T06:27:44.361Z,102032.78
2023-04-02T06:28:21.420Z,102031.19
2023-04-02T06:28:59.755Z,102032.78
2023-04-02T06:29:38.404Z,102039.75
2023-04-02T06:30:19.082Z,102039.97
2023-04-02T06:30:59.368Z,102044.75
2023-04-02T06:31:38.905Z,102040.97
2023-04-02T06:32:12.277Z,102043.16
2023-04-02T06:32:43.721Z,102038.28
2023-04-02T06:33:15.890Z,102050.38
2023-04-02T06:33:52.209Z,102053.84
2023-04-02T06:34:25.824Z,102051.16
2023-04-02T06:34:57.398Z,102047.97
2023-04-02T06:35:29.120Z,102048.75
2023-04-02T06:36:01.625Z,102052.53
2023-04-02T06:36:33.636Z,102054.44
2023-04-02T06:37:27.297Z,102049.84
2023-04-02T06:38:03.993Z,102054.44
2023-04-02T06:38:36.553Z,102052.53
2023-04-02T06:39:12.300Z,102053.84
2023-04-02T06:39:43.752Z,102059.75
2023-04-02T06:40:33.620Z,102053.56
2023-04-02T06:41:15.020Z,102058.16
2023-04-02T06:41:46.743Z,102059.53
2023-04-02T06:42:23.856Z,102056.84
2023-04-02T06:42:59.778Z,102060.34
2023-04-02T06:43:43.768Z,102064.63
2023-04-02T06:44:21.040Z,102061.94
2023-04-02T06:44:52.676Z,102066.53
2023-04-02T06:45:31.608Z,102061.44
2023-04-02T06:46:11.375Z,102069.44
2023-04-02T06:46:50.021Z,102066.75
2023-04-02T06:47:37.707Z,102069.94
2023-04-02T06:48:17.238Z,102061.06
2023-04-02T06:48:52.182Z,102062.16
2023-04-02T06:49:30.788Z,102065.34
2023-04-02T06:50:14.960Z,102068.34
2023-04-02T06:51:07.940Z,102073.44
2023-04-02T06:51:41.715Z,102066.16
2023-04-02T06:52:25.377Z,102064.56
2023-04-02T06:53:06.315Z,102074.25
2023-04-02T06:53:44.160Z,102069.94
2023-04-02T06:54:17.743Z,102076.94
2023-04-02T06:54:49.462Z,102076.94
2023-04-02T06:55:20.844Z,102076.94
2023-04-02T06:56:03.966Z,102076.41
2023-04-02T06:56:50.811Z,102085.50
2023-04-02T06:57:22.343Z,102079.34
2023-04-02T06:57:54.004Z,102078.53
2023-04-02T06:58:25.380Z,102084.72
2023-04-02T06:58:56.875Z,102087.41
2023-04-02T06:59:28.378Z,102081.22
2023-04-02T06:59:59.879Z,102082.31
2023-04-02T07:00:38.444Z,102089.53
2023-04-02T07:01:19.663Z,102091.13
2023-04-02T07:01:59.177Z,102090.81
2023-04-02T07:02:32.753Z,102094.28
2023-04-02T07:03:07.761Z,102092.69
2023-04-02T07:03:40.074Z,102088.72
2023-04-02T07:04:11.847Z,102092.22
2023-04-02T07:04:43.601Z,102091.91
2023-04-02T07:05:15.118Z,102101.28
2023-04-02T07:05:47.436Z,102094.59
2023-04-02T07:06:21.196Z,102114.16
2023-04-02T07:06:53.262Z,102109.88
2023-04-02T07:07:24.679Z,102106.66
2023-04-02T07:08:03.800Z,102102.66
2023-04-02T07:08:40.845Z,102115.56
2023-04-02T07:09:12.500Z,102112.84
2023-04-02T07:09:43.952Z,102114.75
2023-04-02T07:10:15.526Z,102115.38
2023-04-02T07:10:47.246Z,102122.03
2023-04-02T07:11:21.800Z,102120.44
2023-04-02T07:11:53.246Z,102123.63
2023-04-02T07:12:25.654Z,102125.22
2023-04-02T07:12:57.147Z,102125.22
2023-04-02T07:13:28.598Z,102119.94
2023-04-02T07:14:00.016Z,102126.63
2023-04-02T07:14:31.561Z,102129.31
2023-04-02T07:15:03.879Z,102124.03
2023-04-02T07:15:36.444Z,102125.13
2023-04-02T07:16:15.742Z,102129.59
2023-04-02T07:16:47.310Z,102129.59
2023-04-02T07:17:19.895Z,102136.59
2023-04-02T07:17:52.182Z,102135.78
2023-04-02T07:18:31.978Z,102133.91
2023-04-02T07:19:04.127Z,102131.53
2023-04-02T07:19:35.572Z,102129.91
2023-04-02T07:20:20.521Z,102121.03
2023-04-02T07:20:52.283Z,102134.97
2023-04-02T07:21:23.884Z,102141.41
2023-04-02T07:21:55.314Z,102139.50
2023-04-02T07:22:26.855Z,102142.72
2023-04-02T07:22:58.522Z,102145.91
2023-04-02T07:23:30.051Z,102136.75
2023-04-02T07:24:01.494Z,102144.53
2023-04-02T07:24:32.992Z,102143.44
2023-04-02T07:25:04.672Z,102152.31
2023-04-02T07:25:39.167Z,102138.41
2023-04-02T07:26:20.044Z,102146.44
2023-04-02T07:26:51.899Z,102150.22
2023-04-02T07:27:23.337Z,102161.78
2023-04-02T07:27:55.352Z,102151.22
2023-04-02T07:28:26.850Z,102157.94
2023-04-02T07:28:58.460Z,102151.22
2023-04-02T07:29:29.998Z,102159.31
2023-04-02T07:30:01.443Z,102155.31
2023-04-02T07:30:32.824Z,102154.00
2023-04-02T07:31:04.362Z,102168.25
2023-04-02T07:31:38.671Z,102163.97
2023-04-02T07:32:13.835Z,102172.84
2023-04-02T07:32:45.756Z,102172.34
2023-04-02T07:33:20.478Z,102175.31
2023-04-02T07:33:54.250Z,102175.31
2023-04-02T07:34:25.845Z,102169.94
2023-04-02T07:34:57.428Z,102172.34
2023-04-02T07:35:29.782Z,102179.31